sensor_id;sensor_type;location;lat;lon;timestamp;pressure;altitude;pressure_sealevel;temperature;humidity
62436;BME280;48480;50.252;18.848;2022-08-19T10:23:15;98236.27;;;34.08;38.37
62436;BME280;48480;50.252;18.848;2022-08-19T10:26:00;98228.88;;;34.61;36.35
62436;BME280;48480;50.252;18.848;2022-08-19T10:31:08;98219.93;;;34.91;35.15
62436;BME280;48480;50.252;18.848;2022-08-19T10:33:35;98218.22;;;35.00;34.28
62436;BME280;48480;50.252;18.848;2022-08-19T10:36:09;98223.58;;;34.87;33.78
62436;BME280;48480;50.252;18.848;2022-08-19T10:38:36;98221.17;;;34.63;34.14
62436;BME280;48480;50.252;18.848;2022-08-19T10:41:17;98217.82;;;34.42;34.60
62436;BME280;48480;50.252;18.848;2022-08-19T10:43:45;98196.75;;;34.21;34.70
62436;BME280;48480;50.252;18.848;2022-08-19T10:46:14;98210.55;;;34.26;34.95
62436;BME280;48480;50.252;18.848;2022-08-19T10:48:42;98207.14;;;34.21;34.70
62436;BME280;48480;50.252;18.848;2022-08-19T10:51:17;98216.65;;;34.07;34.24
62436;BME280;48480;50.252;18.848;2022-08-19T10:54:03;98210.04;;;33.92;34.94
62436;BME280;48480;50.252;18.848;2022-08-19T10:56:30;98169.02;;;33.58;34.90
62436;BME280;48480;50.252;18.848;2022-08-19T10:59:12;98199.17;;;33.77;35.23
62436;BME280;48480;50.252;18.848;2022-08-19T11:01:42;98196.81;;;33.72;35.63
62436;BME280;48480;50.252;18.848;2022-08-19T11:04:09;98188.11;;;33.72;35.96
62436;BME280;48480;50.252;18.848;2022-08-19T11:06:40;98188.67;;;33.76;36.45
62436;BME280;48480;50.252;18.848;2022-08-19T11:11:37;98187.55;;;33.73;36.51
62436;BME280;48480;50.252;18.848;2022-08-19T11:14:14;98199.66;;;33.92;36.19
62436;BME280;48480;50.252;18.848;2022-08-19T11:16:41;98196.63;;;34.04;35.98
62436;BME280;48480;50.252;18.848;2022-08-19T11:19:10;98197.80;;;34.11;35.53
62436;BME280;48480;50.252;18.848;2022-08-19T11:21:45;98188.87;;;34.09;35.08
62436;BME280;48480;50.252;18.848;2022-08-19T11:24:21;98188.91;;;34.27;34.79
62436;BME280;48480;50.252;18.848;2022-08-19T11:26:53;98189.86;;;34.43;34.53
62436;BME280;48480;50.252;18.848;2022-08-19T11:31:53;98182.91;;;34.83;33.46
62436;BME280;48480;50.252;18.848;2022-08-19T11:34:23;98181.40;;;35.01;33.81
62436;BME280;48480;50.252;18.848;2022-08-19T11:36:51;98178.53;;;35.19;33.46
62436;BME280;48480;50.252;18.848;2022-08-19T11:39:21;98178.64;;;35.29;32.54
62436;BME280;48480;50.252;18.848;2022-08-19T11:44:16;98187.45;;;35.33;32.52
62436;BME280;48480;50.252;18.848;2022-08-19T11:46:44;98181.80;;;35.29;32.41
62436;BME280;48480;50.252;18.848;2022-08-19T11:49:14;98189.71;;;35.30;32.74
62436;BME280;48480;50.252;18.848;2022-08-19T11:51:42;98186.05;;;35.16;33.03
62436;BME280;48480;50.252;18.848;2022-08-19T11:56:40;98185.48;;;34.71;33.68
62436;BME280;48480;50.252;18.848;2022-08-19T11:59:08;98186.04;;;34.49;33.81
62436;BME280;48480;50.252;18.848;2022-08-19T12:01:35;98185.06;;;34.27;33.97
62436;BME280;48480;50.252;18.848;2022-08-19T12:04:02;98180.44;;;34.07;34.17
62436;BME280;48480;50.252;18.848;2022-08-19T12:09:06;98185.32;;;33.84;34.75
62436;BME280;48480;50.252;18.848;2022-08-19T12:11:33;98188.79;;;33.77;35.09
62436;BME280;48480;50.252;18.848;2022-08-19T12:14:00;98183.73;;;33.70;35.24
62436;BME280;48480;50.252;18.848;2022-08-19T12:16:28;98183.81;;;33.64;35.51
62436;BME280;48480;50.252;18.848;2022-08-19T12:21:27;98182.16;;;33.60;35.39
62436;BME280;48480;50.252;18.848;2022-08-19T12:23:58;98175.71;;;33.61;35.32
62436;BME280;48480;50.252;18.848;2022-08-19T12:26:26;98174.30;;;33.62;35.23
62436;BME280;48480;50.252;18.848;2022-08-19T12:28:54;98170.30;;;33.61;35.28
62436;BME280;48480;50.252;18.848;2022-08-19T12:33:50;98167.88;;;33.59;34.94
62436;BME280;48480;50.252;18.848;2022-08-19T12:36:18;98163.42;;;33.55;35.09
62436;BME280;48480;50.252;18.848;2022-08-19T12:38:45;98161.56;;;33.53;35.59
62436;BME280;48480;50.252;18.848;2022-08-19T12:41:18;98154.84;;;33.53;35.65
62436;BME280;48480;50.252;18.848;2022-08-19T12:46:13;98157.66;;;33.55;35.51
62436;BME280;48480;50.252;18.848;2022-08-19T12:48:40;98159.95;;;33.56;34.81
62436;BME280;48480;50.252;18.848;2022-08-19T12:51:15;98137.96;;;33.45;34.61
62436;BME280;48480;50.252;18.848;2022-08-19T12:53:42;98155.67;;;33.61;34.42
62436;BME280;48480;50.252;18.848;2022-08-19T12:58:38;98152.77;;;33.72;34.33
62436;BME280;48480;50.252;18.848;2022-08-19T13:01:13;98154.69;;;33.79;34.22
62436;BME280;48480;50.252;18.848;2022-08-19T13:03:40;98143.70;;;33.79;34.28
62436;BME280;48480;50.252;18.848;2022-08-19T13:06:07;98146.77;;;33.89;34.37
62436;BME280;48480;50.252;18.848;2022-08-19T13:11:26;98143.04;;;34.00;34.39
62436;BME280;48480;50.252;18.848;2022-08-19T13:13:58;98141.86;;;33.95;34.06
62436;BME280;48480;50.252;18.848;2022-08-19T13:18:55;98143.90;;;34.00;33.74
62436;BME280;48480;50.252;18.848;2022-08-19T13:21:24;98129.98;;;33.96;33.57
62436;BME280;48480;50.252;18.848;2022-08-19T13:23:51;98142.55;;;34.04;33.64
62436;BME280;48480;50.252;18.848;2022-08-19T13:26:18;98145.13;;;34.07;33.71
62436;BME280;48480;50.252;18.848;2022-08-19T13:31:41;98113.73;;;33.98;33.38
62436;BME280;48480;50.252;18.848;2022-08-19T13:36:55;98139.67;;;34.18;32.97
62436;BME280;48480;50.252;18.848;2022-08-19T13:39:21;98138.48;;;34.18;32.83
62436;BME280;48480;50.252;18.848;2022-08-19T13:41:49;98140.44;;;34.18;32.34
62436;BME280;48480;50.252;18.848;2022-08-19T13:44:17;98136.08;;;34.17;32.53
62436;BME280;48480;50.252;18.848;2022-08-19T13:49:21;98131.92;;;34.15;33.28
62436;BME280;48480;50.252;18.848;2022-08-19T13:51:49;98131.04;;;34.21;32.79
62436;BME280;48480;50.252;18.848;2022-08-19T13:54:16;98127.81;;;34.29;31.69
62436;BME280;48480;50.252;18.848;2022-08-19T13:56:44;98125.20;;;34.34;31.69
62436;BME280;48480;50.252;18.848;2022-08-19T14:01:41;98114.25;;;34.49;31.29
62436;BME280;48480;50.252;18.848;2022-08-19T14:04:09;98115.50;;;34.56;31.60
62436;BME280;48480;50.252;18.848;2022-08-19T14:06:35;98122.09;;;34.56;32.39
62436;BME280;48480;50.252;18.848;2022-08-19T14:09:02;98122.73;;;34.51;32.55
62436;BME280;48480;50.252;18.848;2022-08-19T14:11:29;98124.98;;;34.49;32.44
62436;BME280;48480;50.252;18.848;2022-08-19T14:14:01;98125.15;;;34.46;32.81
62436;BME280;48480;50.252;18.848;2022-08-19T14:16:28;98116.26;;;34.47;32.88
62436;BME280;48480;50.252;18.848;2022-08-19T14:18:56;98114.95;;;34.49;32.93
62436;BME280;48480;50.252;18.848;2022-08-19T14:21:24;98113.45;;;34.50;32.73
62436;BME280;48480;50.252;18.848;2022-08-19T14:23:52;98112.63;;;34.53;32.95
62436;BME280;48480;50.252;18.848;2022-08-19T14:28:44;98106.43;;;34.51;32.47
62436;BME280;48480;50.252;18.848;2022-08-19T14:31:13;98103.50;;;34.56;32.64
62436;BME280;48480;50.252;18.848;2022-08-19T14:33:42;98099.73;;;34.53;32.22
62436;BME280;48480;50.252;18.848;2022-08-19T14:36:09;98100.00;;;34.51;32.68
62436;BME280;48480;50.252;18.848;2022-08-19T14:38:53;98087.91;;;34.48;32.94
62436;BME280;48480;50.252;18.848;2022-08-19T14:41:27;98101.02;;;34.64;33.08
62436;BME280;48480;50.252;18.848;2022-08-19T14:44:07;98092.33;;;34.62;33.54
62436;BME280;48480;50.252;18.848;2022-08-19T14:49:03;98076.86;;;34.59;32.45
62436;BME280;48480;50.252;18.848;2022-08-19T14:51:29;98069.65;;;34.61;32.33
62436;BME280;48480;50.252;18.848;2022-08-19T14:53:56;98065.66;;;34.61;32.53
62436;BME280;48480;50.252;18.848;2022-08-19T14:56:26;98058.45;;;34.57;32.20
62436;BME280;48480;50.252;18.848;2022-08-19T15:01:24;98056.13;;;34.51;32.78
62436;BME280;48480;50.252;18.848;2022-08-19T15:03:54;98059.25;;;34.51;32.55
62436;BME280;48480;50.252;18.848;2022-08-19T15:06:22;98055.14;;;34.49;32.70
62436;BME280;48480;50.252;18.848;2022-08-19T15:08:49;98054.21;;;34.49;32.73
62436;BME280;48480;50.252;18.848;2022-08-19T15:13:53;98054.15;;;34.39;32.62
62436;BME280;48480;50.252;18.848;2022-08-19T15:16:21;98052.34;;;34.28;32.93
62436;BME280;48480;50.252;18.848;2022-08-19T15:18:58;98056.02;;;34.17;33.59
62436;BME280;48480;50.252;18.848;2022-08-19T15:23:59;98052.52;;;33.81;35.09
62436;BME280;48480;50.252;18.848;2022-08-19T15:26:30;98047.61;;;33.55;35.53
62436;BME280;48480;50.252;18.848;2022-08-19T15:29:05;98043.23;;;33.36;35.88
62436;BME280;48480;50.252;18.848;2022-08-19T15:32:06;98034.30;;;33.16;36.46
62436;BME280;48480;50.252;18.848;2022-08-19T15:37:27;98024.05;;;32.82;36.97
62436;BME280;48480;50.252;18.848;2022-08-19T15:39:53;98020.98;;;32.72;37.28
62436;BME280;48480;50.252;18.848;2022-08-19T15:42:22;98024.10;;;32.61;37.18
62436;BME280;48480;50.252;18.848;2022-08-19T15:44:49;98021.66;;;32.51;37.49
62436;BME280;48480;50.252;18.848;2022-08-19T15:49:56;98030.34;;;32.28;37.93
62436;BME280;48480;50.252;18.848;2022-08-19T15:52:29;98041.20;;;32.17;38.20
62436;BME280;48480;50.252;18.848;2022-08-19T15:57:49;98051.63;;;31.96;39.49
62436;BME280;48480;50.252;18.848;2022-08-19T16:01:07;98055.96;;;31.76;40.40
62436;BME280;48480;50.252;18.848;2022-08-19T16:03:54;98053.67;;;31.63;40.96
62436;BME280;48480;50.252;18.848;2022-08-19T16:15:10;98049.29;;;31.44;41.12
62436;BME280;48480;50.252;18.848;2022-08-19T16:20:22;98051.33;;;31.27;40.89
62436;BME280;48480;50.252;18.848;2022-08-19T16:22:52;98065.11;;;31.22;41.13
62436;BME280;48480;50.252;18.848;2022-08-19T16:25:33;98058.55;;;31.04;41.42
62436;BME280;48480;50.252;18.848;2022-08-19T16:28:15;98085.89;;;31.12;42.06
62436;BME280;48480;50.252;18.848;2022-08-19T16:30:47;98086.15;;;31.06;42.57
62436;BME280;48480;50.252;18.848;2022-08-19T16:33:17;98075.84;;;30.99;42.78
62436;BME280;48480;50.252;18.848;2022-08-19T16:38:19;98050.19;;;30.86;43.28
62436;BME280;48480;50.252;18.848;2022-08-19T16:40:49;98035.69;;;30.72;42.87
62436;BME280;48480;50.252;18.848;2022-08-19T16:43:20;98017.73;;;30.47;43.67
62436;BME280;48480;50.252;18.848;2022-08-19T16:50:40;98078.30;;;30.56;44.27
62436;BME280;48480;50.252;18.848;2022-08-19T16:53:07;98064.34;;;30.46;44.42
62436;BME280;48480;50.252;18.848;2022-08-19T16:55:35;98052.62;;;30.30;45.33
62436;BME280;48480;50.252;18.848;2022-08-19T16:58:03;98043.41;;;30.12;45.52
62436;BME280;48480;50.252;18.848;2022-08-19T17:00:32;98041.51;;;29.87;46.05
62436;BME280;48480;50.252;18.848;2022-08-19T17:03:07;98055.33;;;29.80;45.90
62436;BME280;48480;50.252;18.848;2022-08-19T17:05:47;98050.27;;;29.62;46.56
62436;BME280;48480;50.252;18.848;2022-08-19T17:08:30;98084.45;;;29.48;47.04
62436;BME280;48480;50.252;18.848;2022-08-19T17:11:00;98114.73;;;29.39;47.51
62436;BME280;48480;50.252;18.848;2022-08-19T17:13:34;98152.81;;;29.31;48.22
62436;BME280;48480;50.252;18.848;2022-08-19T17:16:01;98203.48;;;29.24;48.79
62436;BME280;48480;50.252;18.848;2022-08-19T17:18:27;98226.39;;;29.09;49.65
62436;BME280;48480;50.252;18.848;2022-08-19T17:21:00;98217.67;;;28.86;50.47
62436;BME280;48480;50.252;18.848;2022-08-19T17:23:35;98189.24;;;28.63;50.96
62436;BME280;48480;50.252;18.848;2022-08-19T17:26:02;98216.69;;;28.32;51.23
62436;BME280;48480;50.252;18.848;2022-08-19T17:28:33;98273.70;;;27.97;51.61
62436;BME280;48480;50.252;18.848;2022-08-19T17:31:00;98295.80;;;27.68;52.55
62436;BME280;48480;50.252;18.848;2022-08-19T17:33:27;98311.79;;;27.34;56.51
62436;BME280;48480;50.252;18.848;2022-08-19T17:35:54;98303.41;;;26.93;60.95
62436;BME280;48480;50.252;18.848;2022-08-19T17:38:22;98289.30;;;26.48;62.16
62436;BME280;48480;50.252;18.848;2022-08-19T17:40:49;98312.89;;;26.05;63.05
62436;BME280;48480;50.252;18.848;2022-08-19T17:43:20;98342.58;;;25.48;64.03
62436;BME280;48480;50.252;18.848;2022-08-19T17:45:47;98342.57;;;25.12;64.86
62436;BME280;48480;50.252;18.848;2022-08-19T17:48:13;98337.28;;;24.88;66.53
62436;BME280;48480;50.252;18.848;2022-08-19T17:50:41;98331.02;;;24.59;67.29
62436;BME280;48480;50.252;18.848;2022-08-19T17:53:08;98354.31;;;24.43;68.68
62436;BME280;48480;50.252;18.848;2022-08-19T17:55:35;98381.55;;;24.25;69.28
62436;BME280;48480;50.252;18.848;2022-08-19T17:58:02;98424.09;;;24.06;70.46
62436;BME280;48480;50.252;18.848;2022-08-19T18:00:32;98428.06;;;23.85;72.01
62436;BME280;48480;50.252;18.848;2022-08-19T18:03:01;98406.45;;;23.65;72.94
62436;BME280;48480;50.252;18.848;2022-08-19T18:05:34;98371.95;;;23.47;74.17
62436;BME280;48480;50.252;18.848;2022-08-19T18:08:05;98346.21;;;23.18;74.69
62436;BME280;48480;50.252;18.848;2022-08-19T18:10:34;98345.31;;;22.98;74.55
62436;BME280;48480;50.252;18.848;2022-08-19T18:13:02;98348.39;;;22.81;76.25
62436;BME280;48480;50.252;18.848;2022-08-19T18:15:29;98361.35;;;22.68;76.38
62436;BME280;48480;50.252;18.848;2022-08-19T18:17:56;98366.60;;;22.64;76.84
62436;BME280;48480;50.252;18.848;2022-08-19T18:20:22;98356.63;;;22.59;77.52
62436;BME280;48480;50.252;18.848;2022-08-19T18:22:49;98361.66;;;22.51;77.87
62436;BME280;48480;50.252;18.848;2022-08-19T18:25:20;98364.71;;;22.49;78.07
62436;BME280;48480;50.252;18.848;2022-08-19T18:27:53;98380.24;;;22.51;78.26
62436;BME280;48480;50.252;18.848;2022-08-19T18:30:21;98388.38;;;22.49;78.56
62436;BME280;48480;50.252;18.848;2022-08-19T18:32:49;98408.22;;;22.45;79.24
62436;BME280;48480;50.252;18.848;2022-08-19T18:35:21;98413.39;;;22.39;79.37
62436;BME280;48480;50.252;18.848;2022-08-19T18:37:48;98415.06;;;22.29;78.82
62436;BME280;48480;50.252;18.848;2022-08-19T18:40:19;98412.72;;;22.22;78.16
62436;BME280;48480;50.252;18.848;2022-08-19T18:43:05;98409.14;;;22.19;78.32
62436;BME280;48480;50.252;18.848;2022-08-19T18:46:01;98393.93;;;22.13;78.53
62436;BME280;48480;50.252;18.848;2022-08-19T18:48:49;98385.02;;;22.16;79.02
62436;BME280;48480;50.252;18.848;2022-08-19T18:51:31;98394.48;;;22.11;79.76
62436;BME280;48480;50.252;18.848;2022-08-19T18:53:58;98373.91;;;21.92;80.76
62436;BME280;48480;50.252;18.848;2022-08-19T18:56:31;98402.98;;;22.19;81.16
62436;BME280;48480;50.252;18.848;2022-08-19T18:59:00;98359.94;;;22.04;81.58
62436;BME280;48480;50.252;18.848;2022-08-19T19:01:38;98382.98;;;22.30;81.61
62436;BME280;48480;50.252;18.848;2022-08-19T19:04:08;98381.33;;;22.36;81.46
62436;BME280;48480;50.252;18.848;2022-08-19T19:06:42;98393.88;;;22.39;80.75
62436;BME280;48480;50.252;18.848;2022-08-19T19:09:14;98421.20;;;22.40;82.06
62436;BME280;48480;50.252;18.848;2022-08-19T19:11:46;98433.00;;;22.38;82.36
62436;BME280;48480;50.252;18.848;2022-08-19T19:14:15;98432.95;;;22.32;82.27
62436;BME280;48480;50.252;18.848;2022-08-19T19:16:42;98423.64;;;22.23;82.23
62436;BME280;48480;50.252;18.848;2022-08-19T19:19:11;98416.62;;;22.23;82.11
62436;BME280;48480;50.252;18.848;2022-08-19T19:21:43;98400.40;;;22.14;81.93
62436;BME280;48480;50.252;18.848;2022-08-19T19:24:18;98386.14;;;22.01;82.59
62436;BME280;48480;50.252;18.848;2022-08-19T19:26:49;98392.71;;;21.94;82.91
62436;BME280;48480;50.252;18.848;2022-08-19T19:29:19;98375.02;;;21.85;83.47
62436;BME280;48480;50.252;18.848;2022-08-19T19:31:47;98383.29;;;21.90;83.81
62436;BME280;48480;50.252;18.848;2022-08-19T19:34:19;98392.43;;;21.89;83.97
62436;BME280;48480;50.252;18.848;2022-08-19T19:36:48;98384.61;;;21.87;84.50
62436;BME280;48480;50.252;18.848;2022-08-19T19:39:15;98401.44;;;21.99;84.63
62436;BME280;48480;50.252;18.848;2022-08-19T19:41:52;98400.73;;;22.04;85.07
62436;BME280;48480;50.252;18.848;2022-08-19T19:44:19;98408.77;;;22.09;85.06
62436;BME280;48480;50.252;18.848;2022-08-19T19:46:47;98413.44;;;22.14;84.87
62436;BME280;48480;50.252;18.848;2022-08-19T19:49:14;98409.84;;;22.18;84.57
62436;BME280;48480;50.252;18.848;2022-08-19T19:51:41;98403.12;;;22.21;85.15
62436;BME280;48480;50.252;18.848;2022-08-19T19:54:10;98398.73;;;22.24;84.77
62436;BME280;48480;50.252;18.848;2022-08-19T19:56:43;98390.79;;;22.25;84.38
62436;BME280;48480;50.252;18.848;2022-08-19T19:59:11;98399.30;;;22.28;84.56
62436;BME280;48480;50.252;18.848;2022-08-19T20:01:38;98399.29;;;22.33;84.97
62436;BME280;48480;50.252;18.848;2022-08-19T20:04:12;98393.98;;;22.36;84.11
62436;BME280;48480;50.252;18.848;2022-08-19T20:06:41;98380.40;;;22.28;83.72
62436;BME280;48480;50.252;18.848;2022-08-19T20:09:13;98366.77;;;22.20;83.95
62436;BME280;48480;50.252;18.848;2022-08-19T20:11:44;98357.34;;;22.11;84.41
62436;BME280;48480;50.252;18.848;2022-08-19T20:14:17;98347.67;;;22.01;84.45
62436;BME280;48480;50.252;18.848;2022-08-19T20:16:46;98344.59;;;21.92;84.14
62436;BME280;48480;50.252;18.848;2022-08-19T20:19:17;98349.83;;;21.87;84.31
62436;BME280;48480;50.252;18.848;2022-08-19T20:21:48;98353.19;;;21.88;84.24
62436;BME280;48480;50.252;18.848;2022-08-19T20:24:33;98324.73;;;21.71;84.94
62436;BME280;48480;50.252;18.848;2022-08-19T20:27:07;98350.19;;;22.00;85.38
62436;BME280;48480;50.252;18.848;2022-08-19T20:29:34;98339.38;;;22.08;84.82
62436;BME280;48480;50.252;18.848;2022-08-19T20:32:09;98333.77;;;22.13;84.43
62436;BME280;48480;50.252;18.848;2022-08-19T20:34:46;98328.05;;;22.17;84.29
62436;BME280;48480;50.252;18.848;2022-08-19T20:37:15;98318.44;;;22.20;84.13
62436;BME280;48480;50.252;18.848;2022-08-19T20:39:45;98314.21;;;22.22;84.30
62436;BME280;48480;50.252;18.848;2022-08-19T20:42:19;98293.45;;;22.03;84.36
62436;BME280;48480;50.252;18.848;2022-08-19T20:44:56;98304.34;;;22.14;84.40
62436;BME280;48480;50.252;18.848;2022-08-19T20:47:23;98300.89;;;22.16;84.80
62436;BME280;48480;50.252;18.848;2022-08-19T20:49:50;98315.00;;;22.19;85.13
62436;BME280;48480;50.252;18.848;2022-08-19T20:52:17;98328.34;;;22.20;85.17
62436;BME280;48480;50.252;18.848;2022-08-19T20:54:45;98320.55;;;22.21;85.36
62436;BME280;48480;50.252;18.848;2022-08-19T20:57:14;98313.66;;;22.23;85.44
62436;BME280;48480;50.252;18.848;2022-08-19T21:02:23;98313.29;;;22.27;85.75
62436;BME280;48480;50.252;18.848;2022-08-19T21:05:00;98322.11;;;22.28;85.71
62436;BME280;48480;50.252;18.848;2022-08-19T21:07:27;98320.62;;;22.27;85.80
62436;BME280;48480;50.252;18.848;2022-08-19T21:09:54;98329.52;;;22.26;85.95
62436;BME280;48480;50.252;18.848;2022-08-19T21:12:24;98308.89;;;22.10;85.69
62436;BME280;48480;50.252;18.848;2022-08-19T21:14:52;98337.64;;;22.28;85.63
62436;BME280;48480;50.252;18.848;2022-08-19T21:17:21;98307.42;;;22.07;84.97
62436;BME280;48480;50.252;18.848;2022-08-19T21:19:48;98347.08;;;22.30;85.27
62436;BME280;48480;50.252;18.848;2022-08-19T21:22:18;98350.98;;;22.31;84.94
62436;BME280;48480;50.252;18.848;2022-08-19T21:24:45;98350.04;;;22.30;85.10
62436;BME280;48480;50.252;18.848;2022-08-19T21:27:12;98351.67;;;22.29;84.82
62436;BME280;48480;50.252;18.848;2022-08-19T21:29:39;98359.41;;;22.29;84.83
62436;BME280;48480;50.252;18.848;2022-08-19T21:32:07;98370.35;;;22.22;85.24
62436;BME280;48480;50.252;18.848;2022-08-19T21:34:37;98379.08;;;22.24;85.27
62436;BME280;48480;50.252;18.848;2022-08-19T21:37:04;98372.60;;;22.22;85.35
62436;BME280;48480;50.252;18.848;2022-08-19T21:39:31;98371.27;;;22.21;85.22
62436;BME280;48480;50.252;18.848;2022-08-19T21:42:03;98392.50;;;22.21;85.25
62436;BME280;48480;50.252;18.848;2022-08-19T21:44:29;98346.01;;;21.88;85.27
62436;BME280;48480;50.252;18.848;2022-08-19T21:46:56;98365.19;;;21.90;85.16
62436;BME280;48480;50.252;18.848;2022-08-19T21:49:23;98406.73;;;22.08;84.90
62436;BME280;48480;50.252;18.848;2022-08-19T21:51:51;98411.83;;;22.05;84.80
62436;BME280;48480;50.252;18.848;2022-08-19T21:54:17;98400.52;;;22.03;84.36
62436;BME280;48480;50.252;18.848;2022-08-19T21:56:44;98393.02;;;22.02;84.38
62436;BME280;48480;50.252;18.848;2022-08-19T21:59:12;98391.69;;;22.02;84.01
62436;BME280;48480;50.252;18.848;2022-08-19T22:01:39;98380.06;;;22.03;84.06
62436;BME280;48480;50.252;18.848;2022-08-19T22:04:05;98373.35;;;22.02;83.42
62436;BME280;48480;50.252;18.848;2022-08-19T22:06:31;98370.77;;;22.03;83.61
62436;BME280;48480;50.252;18.848;2022-08-19T22:08:58;98353.07;;;22.02;83.18
62436;BME280;48480;50.252;18.848;2022-08-19T22:11:25;98348.62;;;22.02;83.21
62436;BME280;48480;50.252;18.848;2022-08-19T22:13:52;98328.56;;;22.03;83.09
62436;BME280;48480;50.252;18.848;2022-08-19T22:16:19;98327.58;;;21.93;83.24
62436;BME280;48480;50.252;18.848;2022-08-19T22:18:47;98331.58;;;21.89;83.66
62436;BME280;48480;50.252;18.848;2022-08-19T22:21:17;98332.27;;;21.89;83.74
62436;BME280;48480;50.252;18.848;2022-08-19T22:23:46;98323.60;;;21.89;83.87
62436;BME280;48480;50.252;18.848;2022-08-19T22:26:14;98309.58;;;21.85;83.74
62436;BME280;48480;50.252;18.848;2022-08-19T22:28:42;98317.85;;;21.79;83.80
62436;BME280;48480;50.252;18.848;2022-08-19T22:31:09;98313.19;;;21.76;84.14
62436;BME280;48480;50.252;18.848;2022-08-19T22:33:37;98312.17;;;21.73;84.20
62436;BME280;48480;50.252;18.848;2022-08-19T22:36:05;98302.60;;;21.67;84.57
62436;BME280;48480;50.252;18.848;2022-08-19T22:38:35;98300.20;;;21.61;84.75
62436;BME280;48480;50.252;18.848;2022-08-19T22:41:03;98295.38;;;21.57;85.09
62436;BME280;48480;50.252;18.848;2022-08-19T22:43:30;98299.19;;;21.54;84.98
62436;BME280;48480;50.252;18.848;2022-08-19T22:45:58;98297.16;;;21.54;85.38
62436;BME280;48480;50.252;18.848;2022-08-19T22:48:27;98292.64;;;21.52;85.26
62436;BME280;48480;50.252;18.848;2022-08-19T22:50:55;98284.09;;;21.49;85.60
62436;BME280;48480;50.252;18.848;2022-08-19T22:53:43;98286.26;;;21.47;86.01
62436;BME280;48480;50.252;18.848;2022-08-19T22:56:11;98275.57;;;21.51;86.53
62436;BME280;48480;50.252;18.848;2022-08-19T22:58:38;98269.02;;;21.53;85.99
62436;BME280;48480;50.252;18.848;2022-08-19T23:01:05;98269.57;;;21.52;86.03
62436;BME280;48480;50.252;18.848;2022-08-19T23:03:32;98263.19;;;21.50;86.14
62436;BME280;48480;50.252;18.848;2022-08-19T23:05:59;98265.83;;;21.45;85.99
62436;BME280;48480;50.252;18.848;2022-08-19T23:08:26;98275.98;;;21.45;86.01
62436;BME280;48480;50.252;18.848;2022-08-19T23:10:52;98285.08;;;21.41;85.53
62436;BME280;48480;50.252;18.848;2022-08-19T23:13:19;98298.80;;;21.38;85.42
62436;BME280;48480;50.252;18.848;2022-08-19T23:15:46;98311.02;;;21.39;85.54
62436;BME280;48480;50.252;18.848;2022-08-19T23:18:13;98315.95;;;21.42;85.60
62436;BME280;48480;50.252;18.848;2022-08-19T23:20:41;98316.74;;;21.45;85.20
62436;BME280;48480;50.252;18.848;2022-08-19T23:23:11;98314.88;;;21.46;84.61
62436;BME280;48480;50.252;18.848;2022-08-19T23:25:38;98323.45;;;21.45;84.50
62436;BME280;48480;50.252;18.848;2022-08-19T23:28:06;98323.14;;;21.47;84.42
62436;BME280;48480;50.252;18.848;2022-08-19T23:30:52;98325.93;;;21.46;84.42
62436;BME280;48480;50.252;18.848;2022-08-19T23:33:26;98341.08;;;21.45;84.51
62436;BME280;48480;50.252;18.848;2022-08-19T23:35:56;98337.95;;;21.46;85.10
62436;BME280;48480;50.252;18.848;2022-08-19T23:38:26;98339.66;;;21.49;85.40
62436;BME280;48480;50.252;18.848;2022-08-19T23:40:55;98332.33;;;21.50;85.28
62436;BME280;48480;50.252;18.848;2022-08-19T23:43:23;98330.92;;;21.46;84.82
62436;BME280;48480;50.252;18.848;2022-08-19T23:45:51;98330.05;;;21.40;84.71
62436;BME280;48480;50.252;18.848;2022-08-19T23:48:18;98325.45;;;21.37;84.75
62436;BME280;48480;50.252;18.848;2022-08-19T23:50:45;98312.44;;;21.38;84.80
62436;BME280;48480;50.252;18.848;2022-08-19T23:53:13;98305.48;;;21.34;84.95
62436;BME280;48480;50.252;18.848;2022-08-19T23:55:43;98302.31;;;21.31;85.11
62436;BME280;48480;50.252;18.848;2022-08-19T23:58:10;98292.11;;;21.28;85.46
